Terminal Aerodrome Forecast
Issued by NWS Oklahoma City, OK

Home | Current Version | Previous Version | Text Only | Print | Product List | Glossary On
Versions: 1 2 3 4 5 6 7 8 9 10 11 12 13 14 15 16 17 18 19 20 21 22 23 24 25 26 27 28 29 30 31 32
000
FTUS44 KOUN 281130
TAFOUN
TAF
KOUN 281130Z 2812/0112 07007KT 1 1/2SM -SN OVC010
     FM281600 11008KT 3SM -SN OVC015
     FM282100 13008KT 5SM -FZDZ OVC008
     FM010100 13008KT 3SM -FZDZ OVC005
     FM010600 15004KT 1/2SM FZDZ FG OVC003 PROB30 0106/0112 1/2SM
      FZDZ FG VV003=

USA.gov is the U.S. government's official web portal to all federal, state and local government web resources and services.